sensor_id;sensor_type;location;lat;lon;timestamp;pressure;altitude;pressure_sealevel;temperature;humidity
37852;BME280;23691;52.486;4.650;2022-07-29T00:00:37;101940.88;;;18.66;56.80
37852;BME280;23691;52.486;4.650;2022-07-29T00:03:03;101937.88;;;18.61;56.75
37852;BME280;23691;52.486;4.650;2022-07-29T00:05:31;101935.81;;;18.63;56.96
37852;BME280;23691;52.486;4.650;2022-07-29T00:07:56;101941.69;;;18.66;56.61
37852;BME280;23691;52.486;4.650;2022-07-29T00:10:24;101940.28;;;18.71;56.77
37852;BME280;23691;52.486;4.650;2022-07-29T00:12:50;101932.59;;;18.74;56.47
37852;BME280;23691;52.486;4.650;2022-07-29T00:15:15;101936.97;;;18.75;56.60
37852;BME280;23691;52.486;4.650;2022-07-29T00:17:41;101930.84;;;18.66;56.71
37852;BME280;23691;52.486;4.650;2022-07-29T00:20:07;101926.84;;;18.62;56.92
37852;BME280;23691;52.486;4.650;2022-07-29T00:22:32;101923.22;;;18.55;57.06
37852;BME280;23691;52.486;4.650;2022-07-29T00:24:58;101925.28;;;18.53;57.18
37852;BME280;23691;52.486;4.650;2022-07-29T00:27:23;101928.84;;;18.54;57.17
37852;BME280;23691;52.486;4.650;2022-07-29T00:29:49;101918.56;;;18.49;57.31
37852;BME280;23691;52.486;4.650;2022-07-29T00:32:14;101915.22;;;18.47;57.25
37852;BME280;23691;52.486;4.650;2022-07-29T00:34:40;101916.56;;;18.36;57.79
37852;BME280;23691;52.486;4.650;2022-07-29T00:37:24;101909.16;;;18.30;57.93
37852;BME280;23691;52.486;4.650;2022-07-29T00:39:50;101914.69;;;18.37;57.64
37852;BME280;23691;52.486;4.650;2022-07-29T00:42:16;101914.19;;;18.33;58.09
37852;BME280;23691;52.486;4.650;2022-07-29T00:44:43;101911.34;;;18.20;58.48
37852;BME280;23691;52.486;4.650;2022-07-29T00:47:12;101904.44;;;18.17;58.60
37852;BME280;23691;52.486;4.650;2022-07-29T00:49:41;101902.66;;;18.10;58.69
37852;BME280;23691;52.486;4.650;2022-07-29T00:52:09;101897.63;;;18.07;58.72
37852;BME280;23691;52.486;4.650;2022-07-29T00:54:35;101898.47;;;18.07;58.62
37852;BME280;23691;52.486;4.650;2022-07-29T00:57:03;101905.66;;;18.15;58.47
37852;BME280;23691;52.486;4.650;2022-07-29T00:59:31;101900.63;;;18.12;58.64
37852;BME280;23691;52.486;4.650;2022-07-29T01:01:56;101900.78;;;18.10;59.06
37852;BME280;23691;52.486;4.650;2022-07-29T01:04:22;101895.38;;;18.10;58.89
37852;BME280;23691;52.486;4.650;2022-07-29T01:06:50;101892.50;;;18.12;58.87
37852;BME280;23691;52.486;4.650;2022-07-29T01:09:17;101896.13;;;18.19;58.67
37852;BME280;23691;52.486;4.650;2022-07-29T01:11:45;101890.72;;;18.19;58.68
37852;BME280;23691;52.486;4.650;2022-07-29T01:14:15;101896.97;;;18.19;58.50
37852;BME280;23691;52.486;4.650;2022-07-29T01:16:55;101897.41;;;18.23;58.90
37852;BME280;23691;52.486;4.650;2022-07-29T01:28:45;101886.97;;;18.20;58.90
37852;BME280;23691;52.486;4.650;2022-07-29T01:31:16;101892.28;;;18.13;58.84
37852;BME280;23691;52.486;4.650;2022-07-29T01:33:47;101891.00;;;18.09;59.11
37852;BME280;23691;52.486;4.650;2022-07-29T01:36:32;101891.84;;;18.10;59.12
37852;BME280;23691;52.486;4.650;2022-07-29T01:39:25;101881.00;;;18.10;59.00
37852;BME280;23691;52.486;4.650;2022-07-29T01:44:34;101878.38;;;18.01;59.24
37852;BME280;23691;52.486;4.650;2022-07-29T01:47:07;101883.91;;;18.08;59.00
37852;BME280;23691;52.486;4.650;2022-07-29T01:49:50;101875.22;;;18.13;59.01
37852;BME280;23691;52.486;4.650;2022-07-29T01:52:42;101872.50;;;18.13;59.28
37852;BME280;23691;52.486;4.650;2022-07-29T01:55:13;101873.91;;;18.09;59.15
37852;BME280;23691;52.486;4.650;2022-07-29T01:57:46;101875.50;;;18.03;59.42
37852;BME280;23691;52.486;4.650;2022-07-29T02:00:17;101868.97;;;17.97;59.31
37852;BME280;23691;52.486;4.650;2022-07-29T02:02:44;101866.44;;;17.96;59.70
37852;BME280;23691;52.486;4.650;2022-07-29T02:05:15;101857.88;;;17.92;59.51
37852;BME280;23691;52.486;4.650;2022-07-29T02:07:47;101853.75;;;17.96;59.29
37852;BME280;23691;52.486;4.650;2022-07-29T02:10:21;101861.31;;;18.01;59.53
37852;BME280;23691;52.486;4.650;2022-07-29T02:12:50;101858.25;;;18.04;59.25
37852;BME280;23691;52.486;4.650;2022-07-29T02:15:16;101852.16;;;18.02;59.25
37852;BME280;23691;52.486;4.650;2022-07-29T02:17:55;101856.72;;;18.01;59.60
37852;BME280;23691;52.486;4.650;2022-07-29T02:20:22;101851.69;;;17.98;59.16
37852;BME280;23691;52.486;4.650;2022-07-29T02:22:49;101860.03;;;17.97;59.72
37852;BME280;23691;52.486;4.650;2022-07-29T02:25:17;101852.06;;;17.95;59.77
37852;BME280;23691;52.486;4.650;2022-07-29T02:27:49;101847.22;;;17.91;59.76
37852;BME280;23691;52.486;4.650;2022-07-29T02:30:19;101852.19;;;17.87;59.58
37852;BME280;23691;52.486;4.650;2022-07-29T02:32:54;101846.50;;;17.82;60.18
37852;BME280;23691;52.486;4.650;2022-07-29T02:35:26;101846.50;;;17.82;59.95
37852;BME280;23691;52.486;4.650;2022-07-29T02:37:53;101851.25;;;17.80;60.10
37852;BME280;23691;52.486;4.650;2022-07-29T02:40:38;101847.88;;;17.78;60.08
37852;BME280;23691;52.486;4.650;2022-07-29T02:43:06;101851.78;;;17.75;60.26
37852;BME280;23691;52.486;4.650;2022-07-29T02:45:33;101845.16;;;17.78;60.32
37852;BME280;23691;52.486;4.650;2022-07-29T02:48:00;101848.34;;;17.81;60.16
37852;BME280;23691;52.486;4.650;2022-07-29T02:50:34;101844.41;;;17.84;59.97
37852;BME280;23691;52.486;4.650;2022-07-29T02:53:26;101843.41;;;17.85;60.23
37852;BME280;23691;52.486;4.650;2022-07-29T02:56:07;101853.19;;;17.86;59.99
37852;BME280;23691;52.486;4.650;2022-07-29T02:58:41;101853.75;;;17.81;60.04
37852;BME280;23691;52.486;4.650;2022-07-29T03:01:13;101857.00;;;17.77;60.40
37852;BME280;23691;52.486;4.650;2022-07-29T03:03:42;101848.59;;;17.72;60.47
37852;BME280;23691;52.486;4.650;2022-07-29T03:06:12;101848.81;;;17.70;60.28
37852;BME280;23691;52.486;4.650;2022-07-29T03:08:39;101840.19;;;17.67;60.47
37852;BME280;23691;52.486;4.650;2022-07-29T03:11:07;101846.28;;;17.69;60.27
37852;BME280;23691;52.486;4.650;2022-07-29T03:13:36;101840.47;;;17.72;60.66
37852;BME280;23691;52.486;4.650;2022-07-29T03:16:10;101837.78;;;17.72;60.06
37852;BME280;23691;52.486;4.650;2022-07-29T03:18:37;101838.16;;;17.69;60.38
37852;BME280;23691;52.486;4.650;2022-07-29T03:21:03;101832.28;;;17.65;60.36
37852;BME280;23691;52.486;4.650;2022-07-29T03:23:29;101842.06;;;17.66;60.29
37852;BME280;23691;52.486;4.650;2022-07-29T03:25:58;101833.03;;;17.59;60.83
37852;BME280;23691;52.486;4.650;2022-07-29T03:28:23;101839.94;;;17.62;60.66
37852;BME280;23691;52.486;4.650;2022-07-29T03:30:49;101837.59;;;17.58;60.73
37852;BME280;23691;52.486;4.650;2022-07-29T03:33:18;101841.53;;;17.56;60.78
37852;BME280;23691;52.486;4.650;2022-07-29T03:35:46;101841.69;;;17.54;60.76
37852;BME280;23691;52.486;4.650;2022-07-29T03:38:12;101842.56;;;17.55;60.64
37852;BME280;23691;52.486;4.650;2022-07-29T03:40:46;101840.19;;;17.52;60.75
37852;BME280;23691;52.486;4.650;2022-07-29T03:43:15;101836.00;;;17.49;60.88
37852;BME280;23691;52.486;4.650;2022-07-29T03:45:44;101831.25;;;17.51;60.71
37852;BME280;23691;52.486;4.650;2022-07-29T03:48:14;101826.69;;;17.52;60.76
37852;BME280;23691;52.486;4.650;2022-07-29T03:50:41;101824.47;;;17.55;60.69
37852;BME280;23691;52.486;4.650;2022-07-29T03:53:09;101823.78;;;17.53;60.70
37852;BME280;23691;52.486;4.650;2022-07-29T03:55:41;101827.63;;;17.44;61.18
37852;BME280;23691;52.486;4.650;2022-07-29T03:58:08;101827.34;;;17.39;61.24
37852;BME280;23691;52.486;4.650;2022-07-29T04:00:37;101815.50;;;17.40;61.23
37852;BME280;23691;52.486;4.650;2022-07-29T04:03:04;101819.22;;;17.39;61.26
37852;BME280;23691;52.486;4.650;2022-07-29T04:05:31;101817.34;;;17.39;61.07
37852;BME280;23691;52.486;4.650;2022-07-29T04:07:56;101822.97;;;17.38;61.23
37852;BME280;23691;52.486;4.650;2022-07-29T04:10:25;101826.13;;;17.42;61.52
37852;BME280;23691;52.486;4.650;2022-07-29T04:12:50;101827.63;;;17.44;61.35
37852;BME280;23691;52.486;4.650;2022-07-29T04:15:16;101823.25;;;17.43;61.24
37852;BME280;23691;52.486;4.650;2022-07-29T04:17:41;101825.13;;;17.43;61.61
37852;BME280;23691;52.486;4.650;2022-07-29T04:20:07;101821.38;;;17.44;61.20
37852;BME280;23691;52.486;4.650;2022-07-29T04:22:33;101816.41;;;17.47;61.19
37852;BME280;23691;52.486;4.650;2022-07-29T04:25:01;101824.19;;;17.50;61.11
37852;BME280;23691;52.486;4.650;2022-07-29T04:27:30;101817.06;;;17.49;61.39
37852;BME280;23691;52.486;4.650;2022-07-29T04:29:55;101819.59;;;17.51;61.24
37852;BME280;23691;52.486;4.650;2022-07-29T04:32:24;101821.94;;;17.54;61.29
37852;BME280;23691;52.486;4.650;2022-07-29T04:34:55;101823.25;;;17.58;61.10
37852;BME280;23691;52.486;4.650;2022-07-29T04:37:21;101824.34;;;17.64;61.25
37852;BME280;23691;52.486;4.650;2022-07-29T04:39:51;101820.81;;;17.63;61.13
37852;BME280;23691;52.486;4.650;2022-07-29T04:45:16;101819.88;;;17.56;60.95
37852;BME280;23691;52.486;4.650;2022-07-29T04:47:45;101822.03;;;17.60;61.08
37852;BME280;23691;52.486;4.650;2022-07-29T04:50:11;101825.00;;;17.66;61.18
37852;BME280;23691;52.486;4.650;2022-07-29T04:52:37;101824.63;;;17.69;61.08
37852;BME280;23691;52.486;4.650;2022-07-29T04:55:04;101829.31;;;17.75;60.79
37852;BME280;23691;52.486;4.650;2022-07-29T04:57:31;101831.44;;;17.79;60.82
37852;BME280;23691;52.486;4.650;2022-07-29T04:59:58;101824.34;;;17.78;60.87
37852;BME280;23691;52.486;4.650;2022-07-29T05:02:26;101820.78;;;17.78;61.16
37852;BME280;23691;52.486;4.650;2022-07-29T05:04:53;101829.31;;;17.75;61.64
37852;BME280;23691;52.486;4.650;2022-07-29T05:07:20;101831.28;;;17.81;61.34
37852;BME280;23691;52.486;4.650;2022-07-29T05:09:50;101830.25;;;17.82;61.57
37852;BME280;23691;52.486;4.650;2022-07-29T05:12:26;101831.94;;;17.83;61.41
37852;BME280;23691;52.486;4.650;2022-07-29T05:14:58;101824.66;;;17.84;61.61
37852;BME280;23691;52.486;4.650;2022-07-29T05:17:33;101817.84;;;17.88;61.27
37852;BME280;23691;52.486;4.650;2022-07-29T05:20:06;101822.84;;;17.91;61.16
37852;BME280;23691;52.486;4.650;2022-07-29T05:22:50;101830.41;;;17.95;61.37
37852;BME280;23691;52.486;4.650;2022-07-29T05:25:41;101824.63;;;17.98;61.24
37852;BME280;23691;52.486;4.650;2022-07-29T05:28:14;101828.75;;;17.94;61.16
37852;BME280;23691;52.486;4.650;2022-07-29T05:30:44;101828.16;;;17.99;61.44
37852;BME280;23691;52.486;4.650;2022-07-29T05:33:23;101825.84;;;17.96;61.42
37852;BME280;23691;52.486;4.650;2022-07-29T05:36:09;101816.41;;;18.07;61.20
37852;BME280;23691;52.486;4.650;2022-07-29T05:38:39;101809.47;;;18.19;60.69
37852;BME280;23691;52.486;4.650;2022-07-29T05:41:16;101818.69;;;18.24;60.93
37852;BME280;23691;52.486;4.650;2022-07-29T05:46:43;101830.09;;;18.20;60.76
37852;BME280;23691;52.486;4.650;2022-07-29T05:49:18;101829.03;;;18.21;60.73
37852;BME280;23691;52.486;4.650;2022-07-29T05:51:56;101829.69;;;18.23;60.50
37852;BME280;23691;52.486;4.650;2022-07-29T05:54:33;101833.53;;;18.29;60.59
37852;BME280;23691;52.486;4.650;2022-07-29T05:57:02;101837.06;;;18.29;60.67
37852;BME280;23691;52.486;4.650;2022-07-29T05:59:40;101838.28;;;18.27;60.70
37852;BME280;23691;52.486;4.650;2022-07-29T06:02:12;101838.09;;;18.28;60.65
37852;BME280;23691;52.486;4.650;2022-07-29T06:04:43;101836.69;;;18.32;60.31
37852;BME280;23691;52.486;4.650;2022-07-29T06:07:15;101836.56;;;18.40;60.36
37852;BME280;23691;52.486;4.650;2022-07-29T06:09:43;101838.44;;;18.40;60.16
37852;BME280;23691;52.486;4.650;2022-07-29T06:12:16;101832.44;;;18.44;60.10
37852;BME280;23691;52.486;4.650;2022-07-29T06:14:51;101835.41;;;18.50;59.98
37852;BME280;23691;52.486;4.650;2022-07-29T06:17:21;101832.19;;;18.61;59.78
37852;BME280;23691;52.486;4.650;2022-07-29T06:19:53;101843.47;;;18.64;59.67
37852;BME280;23691;52.486;4.650;2022-07-29T06:22:20;101835.84;;;18.75;59.57
37852;BME280;23691;52.486;4.650;2022-07-29T06:27:42;101827.91;;;18.95;59.03
37852;BME280;23691;52.486;4.650;2022-07-29T06:30:17;101833.22;;;19.03;58.89
37852;BME280;23691;52.486;4.650;2022-07-29T06:32:47;101835.88;;;18.96;58.77
37852;BME280;23691;52.486;4.650;2022-07-29T06:35:18;101837.28;;;18.92;58.78
37852;BME280;23691;52.486;4.650;2022-07-29T06:37:52;101840.22;;;18.91;58.55
37852;BME280;23691;52.486;4.650;2022-07-29T06:40:24;101844.44;;;19.00;58.51
37852;BME280;23691;52.486;4.650;2022-07-29T06:43:28;101847.03;;;19.08;58.37
37852;BME280;23691;52.486;4.650;2022-07-29T06:46:50;101844.75;;;19.12;58.28
37852;BME280;23691;52.486;4.650;2022-07-29T06:50:12;101840.06;;;18.99;58.56
37852;BME280;23691;52.486;4.650;2022-07-29T07:19:43;101856.59;;;20.02;56.69
37852;BME280;23691;52.486;4.650;2022-07-29T07:22:10;101863.53;;;20.11;56.27
37852;BME280;23691;52.486;4.650;2022-07-29T07:24:35;101866.06;;;20.19;56.15
37852;BME280;23691;52.486;4.650;2022-07-29T07:27:00;101866.28;;;20.24;55.71
37852;BME280;23691;52.486;4.650;2022-07-29T07:29:27;101863.16;;;20.21;55.79
37852;BME280;23691;52.486;4.650;2022-07-29T07:31:52;101872.59;;;20.31;55.61
37852;BME280;23691;52.486;4.650;2022-07-29T07:34:17;101857.38;;;20.50;55.25
37852;BME280;23691;52.486;4.650;2022-07-29T07:36:43;101858.69;;;20.74;54.61
37852;BME280;23691;52.486;4.650;2022-07-29T07:39:08;101856.63;;;20.96;54.11
37852;BME280;23691;52.486;4.650;2022-07-29T07:41:34;101863.50;;;21.19;53.97
37852;BME280;23691;52.486;4.650;2022-07-29T07:43:59;101860.81;;;21.32;53.51
37852;BME280;23691;52.486;4.650;2022-07-29T07:46:25;101852.44;;;21.40;53.16
37852;BME280;23691;52.486;4.650;2022-07-29T07:48:50;101861.63;;;21.46;52.80
37852;BME280;23691;52.486;4.650;2022-07-29T07:51:17;101856.19;;;21.46;52.70
37852;BME280;23691;52.486;4.650;2022-07-29T07:53:43;101859.56;;;21.41;52.55
37852;BME280;23691;52.486;4.650;2022-07-29T07:56:09;101850.34;;;21.29;52.39
37852;BME280;23691;52.486;4.650;2022-07-29T07:58:35;101862.91;;;21.17;52.85
37852;BME280;23691;52.486;4.650;2022-07-29T08:01:01;101856.63;;;21.03;53.11
37852;BME280;23691;52.486;4.650;2022-07-29T08:03:27;101861.44;;;20.88;53.30
37852;BME280;23691;52.486;4.650;2022-07-29T08:05:52;101853.69;;;20.78;53.33
37852;BME280;23691;52.486;4.650;2022-07-29T08:08:19;101868.13;;;20.85;53.57
37852;BME280;23691;52.486;4.650;2022-07-29T08:10:44;101859.16;;;20.85;53.38
37852;BME280;23691;52.486;4.650;2022-07-29T08:13:22;101857.25;;;20.98;53.15
37852;BME280;23691;52.486;4.650;2022-07-29T08:15:48;101867.91;;;21.07;52.97
37852;BME280;23691;52.486;4.650;2022-07-29T08:18:23;101862.69;;;21.32;52.72
37852;BME280;23691;52.486;4.650;2022-07-29T08:20:50;101862.91;;;21.37;52.56
37852;BME280;23691;52.486;4.650;2022-07-29T08:23:15;101862.91;;;21.30;52.24
37852;BME280;23691;52.486;4.650;2022-07-29T08:25:41;101857.03;;;21.27;52.47
37852;BME280;23691;52.486;4.650;2022-07-29T08:28:07;101866.44;;;21.31;52.42
37852;BME280;23691;52.486;4.650;2022-07-29T08:30:32;101858.50;;;21.42;52.39
37852;BME280;23691;52.486;4.650;2022-07-29T08:32:58;101862.25;;;21.61;51.95
37852;BME280;23691;52.486;4.650;2022-07-29T08:35:24;101858.47;;;21.69;52.07
37852;BME280;23691;52.486;4.650;2022-07-29T08:37:50;101853.81;;;21.76;51.84
37852;BME280;23691;52.486;4.650;2022-07-29T08:40:21;101860.66;;;21.92;51.55
37852;BME280;23691;52.486;4.650;2022-07-29T08:42:49;101865.47;;;21.97;51.07
37852;BME280;23691;52.486;4.650;2022-07-29T08:45:15;101865.91;;;21.94;50.80
37852;BME280;23691;52.486;4.650;2022-07-29T08:47:41;101864.66;;;21.96;50.72
37852;BME280;23691;52.486;4.650;2022-07-29T08:50:07;101861.03;;;22.09;50.39
37852;BME280;23691;52.486;4.650;2022-07-29T08:52:36;101862.25;;;22.20;50.47
37852;BME280;23691;52.486;4.650;2022-07-29T08:55:03;101866.81;;;22.33;50.34
37852;BME280;23691;52.486;4.650;2022-07-29T08:57:29;101872.22;;;22.39;50.15
37852;BME280;23691;52.486;4.650;2022-07-29T09:00:00;101868.00;;;22.43;49.69
37852;BME280;23691;52.486;4.650;2022-07-29T09:02:28;101878.84;;;22.57;49.43
37852;BME280;23691;52.486;4.650;2022-07-29T09:04:56;101876.88;;;22.70;49.25
37852;BME280;23691;52.486;4.650;2022-07-29T09:07:23;101873.84;;;22.79;49.06
37852;BME280;23691;52.486;4.650;2022-07-29T09:09:49;101872.72;;;22.93;49.06
37852;BME280;23691;52.486;4.650;2022-07-29T09:12:14;101865.13;;;23.02;48.70
37852;BME280;23691;52.486;4.650;2022-07-29T09:14:40;101870.66;;;23.13;48.67
37852;BME280;23691;52.486;4.650;2022-07-29T09:17:07;101858.53;;;23.34;48.22
37852;BME280;23691;52.486;4.650;2022-07-29T09:19:34;101857.84;;;23.39;48.20
37852;BME280;23691;52.486;4.650;2022-07-29T09:22:00;101852.25;;;23.52;47.83
37852;BME280;23691;52.486;4.650;2022-07-29T09:24:36;101856.81;;;23.58;48.35
37852;BME280;23691;52.486;4.650;2022-07-29T09:27:29;101856.72;;;23.65;47.90
37852;BME280;23691;52.486;4.650;2022-07-29T09:30:08;101865.69;;;23.72;47.85
37852;BME280;23691;52.486;4.650;2022-07-29T09:33:07;101852.66;;;23.74;47.67
37852;BME280;23691;52.486;4.650;2022-07-29T09:35:32;101855.69;;;23.85;47.33
37852;BME280;23691;52.486;4.650;2022-07-29T09:37:57;101860.84;;;23.74;47.88
37852;BME280;23691;52.486;4.650;2022-07-29T09:40:25;101852.66;;;23.74;47.10
37852;BME280;23691;52.486;4.650;2022-07-29T09:42:51;101856.47;;;23.73;46.88
37852;BME280;23691;52.486;4.650;2022-07-29T09:45:29;101853.50;;;23.75;46.78
37852;BME280;23691;52.486;4.650;2022-07-29T09:47:56;101845.50;;;23.92;45.61
37852;BME280;23691;52.486;4.650;2022-07-29T09:50:38;101851.72;;;23.99;45.60
37852;BME280;23691;52.486;4.650;2022-07-29T09:53:04;101859.31;;;24.15;44.76
37852;BME280;23691;52.486;4.650;2022-07-29T09:55:30;101850.91;;;24.29;44.79
37852;BME280;23691;52.486;4.650;2022-07-29T09:58:15;101846.19;;;24.54;43.92
37852;BME280;23691;52.486;4.650;2022-07-29T10:00:42;101849.88;;;24.60;43.81
37852;BME280;23691;52.486;4.650;2022-07-29T10:03:08;101841.88;;;24.58;43.90
37852;BME280;23691;52.486;4.650;2022-07-29T10:05:33;101841.69;;;24.41;44.24
37852;BME280;23691;52.486;4.650;2022-07-29T10:07:58;101845.78;;;24.51;44.15
37852;BME280;23691;52.486;4.650;2022-07-29T10:13:02;101831.09;;;24.75;44.23
37852;BME280;23691;52.486;4.650;2022-07-29T10:15:30;101833.16;;;24.92;43.42
37852;BME280;23691;52.486;4.650;2022-07-29T10:17:57;101839.97;;;25.01;43.72
37852;BME280;23691;52.486;4.650;2022-07-29T10:20:24;101842.22;;;25.16;43.81
37852;BME280;23691;52.486;4.650;2022-07-29T10:22:50;101846.06;;;25.26;42.88
37852;BME280;23691;52.486;4.650;2022-07-29T10:25:17;101839.50;;;25.16;42.50
37852;BME280;23691;52.486;4.650;2022-07-29T10:27:44;101846.72;;;25.10;42.53
37852;BME280;23691;52.486;4.650;2022-07-29T10:30:11;101841.25;;;25.10;42.56
37852;BME280;23691;52.486;4.650;2022-07-29T10:36:32;101843.84;;;24.93;43.05
37852;BME280;23691;52.486;4.650;2022-07-29T10:38:52;101844.72;;;24.94;42.55
37852;BME280;23691;52.486;4.650;2022-07-29T10:44:03;101846.47;;;24.88;42.64
37852;BME280;23691;52.486;4.650;2022-07-29T10:46:37;101845.75;;;24.93;42.92
37852;BME280;23691;52.486;4.650;2022-07-29T10:51:57;101839.88;;;25.19;42.23
37852;BME280;23691;52.486;4.650;2022-07-29T10:59:42;101829.06;;;25.77;41.97
37852;BME280;23691;52.486;4.650;2022-07-29T11:05:03;101829.72;;;26.07;41.96
37852;BME280;23691;52.486;4.650;2022-07-29T11:07:29;101830.91;;;26.11;41.87
37852;BME280;23691;52.486;4.650;2022-07-29T11:15:13;101819.66;;;26.42;41.63
37852;BME280;23691;52.486;4.650;2022-07-29T11:25:44;101828.56;;;26.49;41.37
37852;BME280;23691;52.486;4.650;2022-07-29T11:28:16;101820.34;;;26.49;41.13
37852;BME280;23691;52.486;4.650;2022-07-29T11:30:50;101809.22;;;26.55;41.44
37852;BME280;23691;52.486;4.650;2022-07-29T11:33:32;101815.00;;;26.71;40.79
37852;BME280;23691;52.486;4.650;2022-07-29T11:36:11;101812.66;;;26.80;41.05
37852;BME280;23691;52.486;4.650;2022-07-29T11:38:38;101815.91;;;26.93;41.26
37852;BME280;23691;52.486;4.650;2022-07-29T11:46:47;101810.53;;;27.37;40.65
37852;BME280;23691;52.486;4.650;2022-07-29T11:49:24;101813.00;;;27.39;40.13
37852;BME280;23691;52.486;4.650;2022-07-29T11:51:55;101810.84;;;27.41;40.00
37852;BME280;23691;52.486;4.650;2022-07-29T11:54:25;101812.97;;;27.56;39.93
37852;BME280;23691;52.486;4.650;2022-07-29T11:56:52;101809.00;;;27.69;39.35
37852;BME280;23691;52.486;4.650;2022-07-29T11:59:19;101810.69;;;27.70;38.41
37852;BME280;23691;52.486;4.650;2022-07-29T12:01:59;101809.06;;;27.74;38.50
37852;BME280;23691;52.486;4.650;2022-07-29T12:04:25;101813.25;;;27.76;38.44
37852;BME280;23691;52.486;4.650;2022-07-29T12:06:55;101818.56;;;27.83;38.27
37852;BME280;23691;52.486;4.650;2022-07-29T12:09:22;101821.69;;;27.92;38.27
37852;BME280;23691;52.486;4.650;2022-07-29T12:11:48;101803.38;;;28.02;38.09
37852;BME280;23691;52.486;4.650;2022-07-29T12:14:31;101806.91;;;28.25;37.50
37852;BME280;23691;52.486;4.650;2022-07-29T12:16:57;101803.09;;;28.26;37.49
37852;BME280;23691;52.486;4.650;2022-07-29T12:19:23;101812.72;;;28.29;37.03
37852;BME280;23691;52.486;4.650;2022-07-29T12:21:50;101800.06;;;28.27;37.11
37852;BME280;23691;52.486;4.650;2022-07-29T12:24:18;101809.81;;;28.40;37.37
37852;BME280;23691;52.486;4.650;2022-07-29T12:26:56;101810.06;;;28.66;36.87
37852;BME280;23691;52.486;4.650;2022-07-29T12:29:22;101796.59;;;28.69;36.38
37852;BME280;23691;52.486;4.650;2022-07-29T12:31:52;101797.19;;;28.77;36.63
37852;BME280;23691;52.486;4.650;2022-07-29T12:34:20;101800.81;;;28.77;35.96
37852;BME280;23691;52.486;4.650;2022-07-29T12:36:48;101800.75;;;28.72;36.13
37852;BME280;23691;52.486;4.650;2022-07-29T12:39:17;101802.38;;;28.68;35.67
37852;BME280;23691;52.486;4.650;2022-07-29T12:41:43;101799.66;;;28.73;36.14
37852;BME280;23691;52.486;4.650;2022-07-29T12:44:09;101806.31;;;28.77;36.35
37852;BME280;23691;52.486;4.650;2022-07-29T12:46:35;101801.47;;;28.95;36.29
37852;BME280;23691;52.486;4.650;2022-07-29T12:49:01;101801.28;;;29.06;35.93
37852;BME280;23691;52.486;4.650;2022-07-29T12:51:34;101816.25;;;29.21;36.04
37852;BME280;23691;52.486;4.650;2022-07-29T12:54:11;101802.25;;;29.27;36.15
37852;BME280;23691;52.486;4.650;2022-07-29T12:56:38;101805.69;;;29.50;35.85
37852;BME280;23691;52.486;4.650;2022-07-29T12:59:15;101801.03;;;29.61;35.41
37852;BME280;23691;52.486;4.650;2022-07-29T13:01:41;101811.22;;;29.60;35.03
37852;BME280;23691;52.486;4.650;2022-07-29T13:04:06;101800.78;;;29.62;35.71
37852;BME280;23691;52.486;4.650;2022-07-29T13:06:43;101788.13;;;29.66;35.39
37852;BME280;23691;52.486;4.650;2022-07-29T13:09:12;101793.38;;;29.73;35.64
37852;BME280;23691;52.486;4.650;2022-07-29T13:11:50;101792.38;;;30.00;34.92
37852;BME280;23691;52.486;4.650;2022-07-29T13:14:37;101796.53;;;30.17;34.80
37852;BME280;23691;52.486;4.650;2022-07-29T13:17:22;101806.47;;;30.24;33.73
37852;BME280;23691;52.486;4.650;2022-07-29T13:20:08;101802.13;;;30.33;34.35
37852;BME280;23691;52.486;4.650;2022-07-29T13:22:38;101801.31;;;30.37;34.00
37852;BME280;23691;52.486;4.650;2022-07-29T13:25:04;101802.13;;;30.48;34.12
37852;BME280;23691;52.486;4.650;2022-07-29T13:27:33;101802.94;;;30.44;33.54
37852;BME280;23691;52.486;4.650;2022-07-29T13:30:01;101796.34;;;30.45;34.13
37852;BME280;23691;52.486;4.650;2022-07-29T13:32:29;101800.94;;;29.98;34.53
37852;BME280;23691;52.486;4.650;2022-07-29T13:34:55;101799.41;;;29.65;35.00
37852;BME280;23691;52.486;4.650;2022-07-29T13:37:21;101804.75;;;29.29;35.32
37852;BME280;23691;52.486;4.650;2022-07-29T13:39:46;101798.78;;;29.05;35.78
37852;BME280;23691;52.486;4.650;2022-07-29T13:42:13;101792.72;;;28.65;36.01
37852;BME280;23691;52.486;4.650;2022-07-29T13:44:39;101796.97;;;28.46;36.37
37852;BME280;23691;52.486;4.650;2022-07-29T13:47:05;101801.94;;;28.49;36.25
37852;BME280;23691;52.486;4.650;2022-07-29T13:49:30;101795.63;;;28.49;36.50
37852;BME280;23691;52.486;4.650;2022-07-29T13:51:56;101796.53;;;28.32;36.67
37852;BME280;23691;52.486;4.650;2022-07-29T13:54:21;101800.38;;;28.31;36.46
37852;BME280;23691;52.486;4.650;2022-07-29T13:56:47;101795.72;;;28.64;36.33
37852;BME280;23691;52.486;4.650;2022-07-29T13:59:12;101802.25;;;28.85;36.05
37852;BME280;23691;52.486;4.650;2022-07-29T14:01:37;101795.91;;;28.89;36.05
37852;BME280;23691;52.486;4.650;2022-07-29T14:04:06;101797.88;;;28.57;36.46
37852;BME280;23691;52.486;4.650;2022-07-29T14:06:31;101806.22;;;28.40;36.64
37852;BME280;23691;52.486;4.650;2022-07-29T14:08:57;101799.81;;;28.29;36.97
37852;BME280;23691;52.486;4.650;2022-07-29T14:11:22;101801.09;;;28.21;37.26
37852;BME280;23691;52.486;4.650;2022-07-29T14:13:47;101800.28;;;28.48;36.85
37852;BME280;23691;52.486;4.650;2022-07-29T14:16:13;101801.94;;;28.49;36.82
37852;BME280;23691;52.486;4.650;2022-07-29T14:18:38;101801.88;;;28.44;36.88
37852;BME280;23691;52.486;4.650;2022-07-29T14:21:04;101803.13;;;28.58;36.67
37852;BME280;23691;52.486;4.650;2022-07-29T14:23:29;101805.78;;;28.48;36.92
37852;BME280;23691;52.486;4.650;2022-07-29T14:25:55;101798.94;;;28.23;37.04
37852;BME280;23691;52.486;4.650;2022-07-29T14:28:20;101802.31;;;28.03;37.78
37852;BME280;23691;52.486;4.650;2022-07-29T14:30:46;101802.16;;;27.93;38.60